createdAt,value
2022-10-22T00:01:20.141Z,13.20
2022-10-22T00:03:54.137Z,13.20
2022-10-22T00:06:22.216Z,13.20
2022-10-22T00:08:56.167Z,13.20
2022-10-22T00:11:23.386Z,13.20
2022-10-22T00:13:51.246Z,13.20
2022-10-22T00:16:25.067Z,13.20
2022-10-22T00:18:59.037Z,13.20
2022-10-22T00:21:36.391Z,13.10
2022-10-22T00:24:10.091Z,13.10
2022-10-22T00:26:51.041Z,13.10
2022-10-22T00:29:31.112Z,13.10
2022-10-22T00:32:05.021Z,13.20
2022-10-22T00:34:32.472Z,13.20
2022-10-22T00:37:06.039Z,13.30
2022-10-22T00:39:40.051Z,13.30
2022-10-22T00:42:07.341Z,13.30
2022-10-22T00:45:09.570Z,13.20
2022-10-22T00:47:58.169Z,13.20
2022-10-22T00:50:43.178Z,13.10
2022-10-22T00:53:17.999Z,13.20
2022-10-22T00:55:55.081Z,13.20
2022-10-22T00:58:26.878Z,13.20
2022-10-22T01:01:02.235Z,13.20
2022-10-22T01:03:29.818Z,13.20
2022-10-22T01:06:10.178Z,13.20
2022-10-22T01:09:10.395Z,13.20
2022-10-22T01:12:15.439Z,13.20
2022-10-22T01:15:36.939Z,13.20
2022-10-22T01:18:18.292Z,13.20
2022-10-22T01:21:38.152Z,13.20
2022-10-22T01:24:54.070Z,13.20
2022-10-22T01:28:15.200Z,13.20
2022-10-22T01:30:45.269Z,13.10
2022-10-22T01:33:22.087Z,13.10
2022-10-22T01:35:50.849Z,13.10
2022-10-22T01:38:29.530Z,13.10
2022-10-22T01:40:57.820Z,13.10
2022-10-22T01:43:32.430Z,13.10
2022-10-22T01:46:04.021Z,13.10
2022-10-22T01:49:20.079Z,13.00
2022-10-22T01:52:00.879Z,13.00
2022-10-22T01:54:51.189Z,13.00
2022-10-22T01:57:44.688Z,13.00
2022-10-22T02:00:24.439Z,12.90
2022-10-22T02:03:37.119Z,12.90
2022-10-22T02:06:10.397Z,12.90
2022-10-22T02:08:46.220Z,12.90
2022-10-22T02:11:16.171Z,12.90
2022-10-22T02:14:00.458Z,13.00
2022-10-22T02:16:46.521Z,13.00
2022-10-22T02:19:26.150Z,13.00
2022-10-22T02:22:01.149Z,13.00
2022-10-22T02:24:28.798Z,13.00
2022-10-22T02:27:40.148Z,13.00
2022-10-22T02:30:18.419Z,13.00
2022-10-22T02:33:10.155Z,13.00
2022-10-22T02:35:48.147Z,12.90
2022-10-22T02:38:23.220Z,12.90
2022-10-22T02:40:57.071Z,12.90
2022-10-22T02:43:25.770Z,12.90
2022-10-22T02:46:00.459Z,12.90
2022-10-22T02:48:27.731Z,12.90
2022-10-22T02:51:01.219Z,12.90
2022-10-22T02:53:28.593Z,13.00
2022-10-22T02:56:02.119Z,12.90
2022-10-22T02:58:29.588Z,12.90
2022-10-22T03:01:03.205Z,13.00
2022-10-22T03:03:30.688Z,13.00
2022-10-22T03:05:58.080Z,13.00
2022-10-22T03:08:32.235Z,13.10
2022-10-22T03:10:59.540Z,13.10
2022-10-22T03:13:26.700Z,13.10
2022-10-22T03:16:00.430Z,13.10
2022-10-22T03:18:27.620Z,13.10
2022-10-22T03:21:38.303Z,13.10
2022-10-22T03:24:20.339Z,13.10
2022-10-22T03:27:07.619Z,13.00
2022-10-22T03:29:47.190Z,13.00
2022-10-22T03:32:21.128Z,13.00
2022-10-22T03:34:48.376Z,12.90
2022-10-22T03:37:22.141Z,12.90
2022-10-22T03:39:50.000Z,12.90
2022-10-22T03:42:24.319Z,12.90
2022-10-22T03:44:58.310Z,12.90
2022-10-22T03:47:32.239Z,12.90
2022-10-22T03:49:59.679Z,12.90
2022-10-22T03:52:26.929Z,12.80
2022-10-22T03:55:01.522Z,12.80
2022-10-22T03:57:28.700Z,12.80
2022-10-22T04:00:03.075Z,12.80
2022-10-22T04:02:30.489Z,12.80
2022-10-22T04:05:04.241Z,12.70
2022-10-22T04:07:31.477Z,12.70
2022-10-22T04:10:05.079Z,12.70
2022-10-22T04:12:32.709Z,12.70
2022-10-22T04:15:06.220Z,12.70
2022-10-22T04:17:38.771Z,12.70
2022-10-22T04:20:13.149Z,12.70
2022-10-22T04:22:40.320Z,12.70
2022-10-22T04:25:14.180Z,12.80
2022-10-22T04:27:48.561Z,12.80
2022-10-22T04:30:21.929Z,12.70
2022-10-22T04:32:56.249Z,12.70
2022-10-22T04:35:30.199Z,12.70
2022-10-22T04:38:05.439Z,12.70
2022-10-22T04:40:32.679Z,12.70
2022-10-22T04:43:06.379Z,12.70
2022-10-22T04:45:35.538Z,12.70
2022-10-22T04:48:09.159Z,12.80
2022-10-22T04:50:36.480Z,12.80
2022-10-22T04:53:03.693Z,12.90
2022-10-22T04:55:37.243Z,12.90
2022-10-22T04:58:05.386Z,12.90
2022-10-22T05:00:39.207Z,12.80
2022-10-22T05:03:14.629Z,12.80
2022-10-22T05:05:42.090Z,12.80
2022-10-22T05:08:16.100Z,12.70
2022-10-22T05:10:43.308Z,12.70
2022-10-22T05:13:17.201Z,12.70
2022-10-22T05:15:44.402Z,12.70
2022-10-22T05:18:21.775Z,12.70
2022-10-22T05:20:49.949Z,12.70
2022-10-22T05:23:24.204Z,12.70
2022-10-22T05:25:51.349Z,12.80
2022-10-22T05:28:32.187Z,12.80
2022-10-22T05:31:08.111Z,12.70
2022-10-22T05:33:42.118Z,12.80
2022-10-22T05:36:20.167Z,12.80
2022-10-22T05:38:47.658Z,12.80
2022-10-22T05:41:27.449Z,12.80
2022-10-22T05:44:00.058Z,12.80
2022-10-22T05:46:37.149Z,12.90
2022-10-22T05:49:08.674Z,12.90
2022-10-22T05:51:44.371Z,12.90
2022-10-22T05:54:22.769Z,12.90
2022-10-22T05:56:56.099Z,12.90
2022-10-22T05:59:23.709Z,12.90
2022-10-22T06:01:57.228Z,13.00
2022-10-22T06:04:31.159Z,13.00
2022-10-22T06:06:58.642Z,13.00
2022-10-22T06:09:40.190Z,13.00
2022-10-22T06:12:11.218Z,13.00
2022-10-22T06:14:45.090Z,13.10
2022-10-22T06:17:14.358Z,13.10
2022-10-22T06:19:49.233Z,13.10
2022-10-22T06:22:23.196Z,13.20
2022-10-22T06:24:57.249Z,13.20
2022-10-22T06:27:31.578Z,13.20
2022-10-22T06:30:05.228Z,13.20
2022-10-22T06:32:39.382Z,13.20
2022-10-22T06:35:07.671Z,13.20
2022-10-22T06:37:41.296Z,13.20
2022-10-22T06:40:09.538Z,13.20
2022-10-22T06:42:43.484Z,13.20
2022-10-22T06:45:11.560Z,13.30
2022-10-22T06:47:45.599Z,13.30
2022-10-22T06:50:12.861Z,13.30
2022-10-22T06:52:47.159Z,13.30
2022-10-22T06:55:14.680Z,13.30
2022-10-22T06:57:48.451Z,13.40
2022-10-22T07:00:15.879Z,13.40
2022-10-22T07:02:50.141Z,13.40
2022-10-22T07:05:17.479Z,13.40
2022-10-22T07:07:51.069Z,13.50
2022-10-22T07:10:18.588Z,13.50
2022-10-22T07:12:52.149Z,13.50
2022-10-22T07:15:19.949Z,13.60
2022-10-22T07:17:54.270Z,13.60
2022-10-22T07:20:21.928Z,13.50
2022-10-22T07:22:56.528Z,13.50
2022-10-22T07:25:24.259Z,13.50
2022-10-22T07:28:00.259Z,13.50
2022-10-22T07:30:35.319Z,13.50
2022-10-22T07:33:09.578Z,13.50
2022-10-22T07:35:39.798Z,13.50
2022-10-22T07:38:15.261Z,13.50
2022-10-22T07:40:42.738Z,13.50
2022-10-22T07:43:16.479Z,13.50
2022-10-22T07:45:43.909Z,13.50
2022-10-22T07:48:18.158Z,13.50
2022-10-22T07:50:45.415Z,13.50
2022-10-22T07:53:19.469Z,13.50
2022-10-22T07:55:50.097Z,13.50
2022-10-22T07:58:25.194Z,13.50
2022-10-22T08:00:55.288Z,13.50
2022-10-22T08:03:29.349Z,13.60
2022-10-22T08:06:03.168Z,13.60
2022-10-22T08:08:31.103Z,13.60
2022-10-22T08:11:07.229Z,13.70
2022-10-22T08:13:45.027Z,13.70
2022-10-22T08:16:13.240Z,13.70
2022-10-22T08:18:47.270Z,13.80
2022-10-22T08:21:14.578Z,13.80
2022-10-22T08:23:49.204Z,13.80
2022-10-22T08:26:16.562Z,13.90
2022-10-22T08:28:57.221Z,13.90
2022-10-22T08:31:24.512Z,14.00
2022-10-22T08:33:58.173Z,14.00
2022-10-22T08:36:25.471Z,14.00
2022-10-22T08:38:59.176Z,14.00
2022-10-22T08:41:27.182Z,14.00
2022-10-22T08:44:01.192Z,14.00
2022-10-22T08:46:53.196Z,14.10
2022-10-22T08:49:42.087Z,14.10
2022-10-22T08:52:18.418Z,14.10
2022-10-22T08:55:05.201Z,14.10
2022-10-22T08:57:39.699Z,14.20
2022-10-22T09:00:27.066Z,14.20
2022-10-22T09:03:14.742Z,14.20
2022-10-22T09:06:22.279Z,14.30
2022-10-22T09:08:56.282Z,14.30
2022-10-22T09:11:32.459Z,14.40
2022-10-22T09:14:08.136Z,14.40
2022-10-22T09:16:52.157Z,14.40
2022-10-22T09:19:39.121Z,14.40
2022-10-22T09:22:39.343Z,14.50
2022-10-22T09:25:25.501Z,14.50
2022-10-22T09:28:12.517Z,14.50
2022-10-22T09:30:40.698Z,14.40
2022-10-22T09:33:24.018Z,14.40
2022-10-22T09:36:10.112Z,14.40
2022-10-22T09:38:52.201Z,14.40
2022-10-22T09:41:30.128Z,14.30
2022-10-22T09:44:05.227Z,14.30
2022-10-22T09:46:46.043Z,14.30
2022-10-22T09:49:23.222Z,14.30
2022-10-22T09:52:02.326Z,14.30
2022-10-22T09:54:32.388Z,14.20
2022-10-22T09:57:14.203Z,14.30
2022-10-22T09:59:44.704Z,14.30
2022-10-22T10:02:38.342Z,14.30
2022-10-22T10:05:08.624Z,14.30
2022-10-22T10:07:44.726Z,14.30
2022-10-22T10:10:21.743Z,14.30
2022-10-22T10:13:24.355Z,14.30
2022-10-22T10:15:57.810Z,14.30
2022-10-22T10:18:59.284Z,14.30
2022-10-22T10:21:39.743Z,14.30
2022-10-22T10:24:45.548Z,14.30
2022-10-22T10:27:54.270Z,14.30
2022-10-22T10:30:28.146Z,14.30
2022-10-22T10:33:26.663Z,14.40
2022-10-22T10:36:13.183Z,14.40
2022-10-22T10:39:12.563Z,14.40
2022-10-22T10:42:12.234Z,14.40
2022-10-22T10:45:05.043Z,14.40
2022-10-22T10:47:48.269Z,14.40
2022-10-22T10:51:01.313Z,14.50
2022-10-22T10:54:03.528Z,14.50
2022-10-22T10:56:50.104Z,14.50
2022-10-22T10:59:29.399Z,14.50
2022-10-22T11:02:27.426Z,14.50
2022-10-22T11:05:32.324Z,14.50
2022-10-22T11:08:18.064Z,14.50
2022-10-22T11:10:56.543Z,14.50
2022-10-22T11:13:30.364Z,14.60
2022-10-22T11:16:20.509Z,14.60
2022-10-22T11:19:22.731Z,14.60
2022-10-22T11:22:23.431Z,14.70
2022-10-22T11:25:42.283Z,14.70
2022-10-22T11:28:37.175Z,14.70
2022-10-22T11:31:25.603Z,14.70
2022-10-22T11:34:33.715Z,14.80
2022-10-22T11:37:10.344Z,14.80
2022-10-22T11:40:01.503Z,14.80
2022-10-22T11:42:38.174Z,14.70
2022-10-22T11:45:32.325Z,14.80
2022-10-22T11:48:11.484Z,14.70
2022-10-22T11:51:07.309Z,14.70
2022-10-22T11:53:42.330Z,14.70
2022-10-22T11:56:17.624Z,14.70
2022-10-22T11:58:54.674Z,14.70
2022-10-22T12:04:40.107Z,14.70
2022-10-22T12:07:54.204Z,14.70
2022-10-22T12:10:26.369Z,14.70
2022-10-22T12:13:12.544Z,14.70
2022-10-22T12:15:56.324Z,14.70
2022-10-22T12:18:29.124Z,14.80
2022-10-22T12:21:03.264Z,14.80
2022-10-22T12:23:34.644Z,14.80
2022-10-22T12:26:10.595Z,14.80
2022-10-22T12:28:54.284Z,14.90
2022-10-22T12:31:29.324Z,14.90
2022-10-22T12:34:04.363Z,14.90
2022-10-22T12:36:40.315Z,15.00
2022-10-22T12:39:17.325Z,15.00
2022-10-22T12:41:52.167Z,15.00
2022-10-22T12:44:26.316Z,15.10
2022-10-22T12:46:56.964Z,15.10
2022-10-22T12:49:42.305Z,15.10
2022-10-22T12:52:26.276Z,15.20
2022-10-22T12:54:55.208Z,15.20
2022-10-22T12:57:29.312Z,15.20
2022-10-22T13:00:03.297Z,15.20
2022-10-22T13:02:37.214Z,15.30
2022-10-22T13:05:24.437Z,15.30
2022-10-22T13:08:01.454Z,15.30
2022-10-22T13:10:41.276Z,15.30
2022-10-22T13:13:28.695Z,15.40
2022-10-22T13:16:03.225Z,15.40
2022-10-22T13:18:41.486Z,15.40
2022-10-22T13:21:29.244Z,15.40
2022-10-22T13:24:09.195Z,15.40
2022-10-22T13:26:44.293Z,15.50
2022-10-22T13:29:18.644Z,15.50
2022-10-22T13:32:00.211Z,15.50
2022-10-22T13:34:28.374Z,15.50
2022-10-22T13:37:02.495Z,15.50
2022-10-22T13:39:29.980Z,15.60
2022-10-22T13:42:04.239Z,15.60
2022-10-22T13:44:31.470Z,15.60
2022-10-22T13:47:05.408Z,15.60
2022-10-22T13:49:32.733Z,15.60
2022-10-22T13:52:08.479Z,15.70
2022-10-22T13:54:45.338Z,15.70
2022-10-22T13:57:19.578Z,15.70
2022-10-22T13:59:47.048Z,15.70
2022-10-22T14:02:21.388Z,15.70
2022-10-22T14:04:48.559Z,15.80
2022-10-22T14:07:23.358Z,15.80
2022-10-22T14:09:50.748Z,15.80
2022-10-22T14:12:24.269Z,15.80
2022-10-22T14:14:51.608Z,15.70
2022-10-22T14:17:26.140Z,15.70
2022-10-22T14:20:00.903Z,15.70
2022-10-22T14:22:29.418Z,15.60
2022-10-22T14:25:03.303Z,15.60
2022-10-22T14:27:38.785Z,15.60
2022-10-22T14:30:29.484Z,15.50
2022-10-22T14:33:05.216Z,15.50
2022-10-22T14:35:32.662Z,15.50
2022-10-22T14:38:06.805Z,15.50
2022-10-22T14:40:40.230Z,15.50
2022-10-22T14:43:07.437Z,15.50
2022-10-22T14:45:41.185Z,15.50
2022-10-22T14:48:08.882Z,15.50
2022-10-22T14:50:42.170Z,15.50
2022-10-22T14:53:09.437Z,15.50
2022-10-22T14:55:37.119Z,15.50
2022-10-22T14:58:11.252Z,15.60
2022-10-22T15:00:40.809Z,15.60
2022-10-22T15:03:14.357Z,15.60
2022-10-22T15:05:44.746Z,15.60
2022-10-22T15:08:20.302Z,15.60
2022-10-22T15:11:04.381Z,15.60
2022-10-22T15:13:39.348Z,15.70
2022-10-22T15:16:16.462Z,15.60
2022-10-22T15:18:50.657Z,15.70
2022-10-22T15:21:27.291Z,15.70
2022-10-22T15:23:54.752Z,15.60
2022-10-22T15:26:28.281Z,15.60
2022-10-22T15:29:02.197Z,15.60
2022-10-22T15:31:54.841Z,15.60
2022-10-22T15:34:31.166Z,15.60
2022-10-22T15:37:01.337Z,15.60
2022-10-22T15:39:36.728Z,15.50
2022-10-22T15:42:10.295Z,15.50
2022-10-22T15:44:46.201Z,15.50
2022-10-22T15:47:13.315Z,15.40
2022-10-22T15:49:49.161Z,15.40
2022-10-22T15:52:23.529Z,15.40
2022-10-22T15:54:50.747Z,15.40
2022-10-22T15:57:17.943Z,15.30
2022-10-22T15:59:52.225Z,15.30
2022-10-22T16:02:19.475Z,15.20
2022-10-22T16:04:53.317Z,15.20
2022-10-22T16:07:23.880Z,15.10
2022-10-22T16:10:02.649Z,15.10
2022-10-22T16:12:30.317Z,15.00
2022-10-22T16:15:04.201Z,14.90
2022-10-22T16:17:31.393Z,14.90
2022-10-22T16:20:05.368Z,14.80
2022-10-22T16:22:34.110Z,14.80
2022-10-22T16:25:08.217Z,14.80
2022-10-22T16:27:35.431Z,14.80
2022-10-22T16:30:16.302Z,14.80
2022-10-22T16:32:43.565Z,14.70
2022-10-22T16:35:19.223Z,14.80
2022-10-22T16:37:47.200Z,14.80
2022-10-22T16:40:21.303Z,14.80
2022-10-22T16:42:55.308Z,14.80
2022-10-22T16:45:29.518Z,14.80
2022-10-22T16:47:57.489Z,14.80
2022-10-22T16:50:31.326Z,14.80
2022-10-22T16:52:58.523Z,14.70
2022-10-22T16:55:32.199Z,14.70
2022-10-22T16:57:59.309Z,14.60
2022-10-22T17:00:33.292Z,14.60
2022-10-22T17:03:00.699Z,14.60
2022-10-22T17:05:34.286Z,14.50
2022-10-22T17:08:01.984Z,14.50
2022-10-22T17:10:36.446Z,14.40
2022-10-22T17:13:04.516Z,14.40
2022-10-22T17:15:39.262Z,14.40
2022-10-22T17:18:07.968Z,14.40
2022-10-22T17:20:41.529Z,14.30
2022-10-22T17:23:10.422Z,14.20
2022-10-22T17:25:50.279Z,14.20
2022-10-22T17:28:37.199Z,14.20
2022-10-22T17:31:13.379Z,14.10
2022-10-22T17:33:40.700Z,14.10
2022-10-22T17:36:17.905Z,14.00
2022-10-22T17:38:58.474Z,14.00
2022-10-22T17:41:37.355Z,14.00
2022-10-22T17:44:09.367Z,14.00
2022-10-22T17:46:44.355Z,13.90
2022-10-22T17:49:28.654Z,13.90
2022-10-22T17:51:56.907Z,13.90
2022-10-22T17:54:30.313Z,13.90
2022-10-22T17:57:04.536Z,13.90
2022-10-22T17:59:33.134Z,14.00
2022-10-22T18:02:09.259Z,14.00
2022-10-22T18:04:36.758Z,14.00
2022-10-22T18:07:10.874Z,14.00
2022-10-22T18:09:39.394Z,14.00
2022-10-22T18:12:13.764Z,13.90
2022-10-22T18:14:41.556Z,13.90
2022-10-22T18:17:18.255Z,13.90
2022-10-22T18:19:46.854Z,13.90
2022-10-22T18:22:21.714Z,13.80
2022-10-22T18:24:49.213Z,13.70
2022-10-22T18:27:23.494Z,13.70
2022-10-22T18:30:04.614Z,13.70
2022-10-22T18:32:40.613Z,13.70
2022-10-22T18:35:15.339Z,13.70
2022-10-22T18:37:43.042Z,13.70
2022-10-22T18:40:17.479Z,13.80
2022-10-22T18:42:46.158Z,13.80
2022-10-22T18:45:20.394Z,13.80
2022-10-22T18:47:47.894Z,13.80
2022-10-22T18:50:15.494Z,13.80
2022-10-22T18:52:49.493Z,13.70
2022-10-22T18:55:17.036Z,13.70
2022-10-22T18:57:52.336Z,13.60
2022-10-22T19:00:20.079Z,13.60
2022-10-22T19:02:55.414Z,13.50
2022-10-22T19:05:30.073Z,13.50
2022-10-22T19:08:04.415Z,13.40
2022-10-22T19:10:34.694Z,13.30
2022-10-22T19:13:08.334Z,13.30
2022-10-22T19:15:35.564Z,13.30
2022-10-22T19:18:09.314Z,13.30
2022-10-22T19:20:37.434Z,13.20
2022-10-22T19:23:11.889Z,13.20
2022-10-22T19:25:39.414Z,13.20
2022-10-22T19:28:14.490Z,13.30
2022-10-22T19:30:47.618Z,13.30
2022-10-22T19:33:22.855Z,13.20
2022-10-22T19:35:57.691Z,13.20
2022-10-22T19:38:49.021Z,13.10
2022-10-22T19:41:32.337Z,13.10
2022-10-22T19:44:22.895Z,13.00
2022-10-22T19:46:50.710Z,13.00
2022-10-22T19:49:25.568Z,13.00
2022-10-22T19:51:52.944Z,12.90
2022-10-22T19:54:27.389Z,12.90
2022-10-22T19:56:55.115Z,12.90
2022-10-22T19:59:32.237Z,13.00
2022-10-22T20:02:00.618Z,12.90
2022-10-22T20:04:36.569Z,12.90
2022-10-22T20:07:05.114Z,12.90
2022-10-22T20:09:40.852Z,13.00
2022-10-22T20:12:15.715Z,13.00
2022-10-22T20:14:51.574Z,12.90
2022-10-22T20:17:25.350Z,12.90
2022-10-22T20:19:53.204Z,12.90
2022-10-22T20:22:27.524Z,12.90
2022-10-22T20:24:56.364Z,12.90
2022-10-22T20:27:30.711Z,12.80
2022-10-22T20:30:04.402Z,12.80
2022-10-22T20:32:38.589Z,12.80
2022-10-22T20:35:14.839Z,12.80
2022-10-22T20:37:49.340Z,12.80
2022-10-22T20:40:16.889Z,12.90
2022-10-22T20:42:50.275Z,12.90
2022-10-22T20:45:17.888Z,12.80
2022-10-22T20:47:58.344Z,12.80
2022-10-22T20:50:40.279Z,12.80
2022-10-22T20:53:07.904Z,12.70
2022-10-22T20:55:42.303Z,12.70
2022-10-22T20:58:16.285Z,12.60
2022-10-22T21:00:44.485Z,12.60
2022-10-22T21:03:19.484Z,12.60
2022-10-22T21:05:46.764Z,12.60
2022-10-22T21:08:24.343Z,12.50
2022-10-22T21:10:51.879Z,12.50
2022-10-22T21:13:26.357Z,12.50
2022-10-22T21:15:53.582Z,12.50
2022-10-22T21:18:27.278Z,12.50
2022-10-22T21:21:01.334Z,12.40
2022-10-22T21:23:28.748Z,12.40
2022-10-22T21:26:04.278Z,12.40
2022-10-22T21:28:52.349Z,12.40
2022-10-22T21:31:28.395Z,12.40
2022-10-22T21:33:55.973Z,12.30
2022-10-22T21:36:30.500Z,12.30
2022-10-22T21:38:58.133Z,12.30
2022-10-22T21:41:32.360Z,12.30
2022-10-22T21:44:00.444Z,12.30
2022-10-22T21:46:36.503Z,12.30
2022-10-22T21:49:11.349Z,12.30
2022-10-22T21:51:38.693Z,12.20
2022-10-22T21:54:12.379Z,12.20
2022-10-22T21:56:39.862Z,12.20
2022-10-22T21:59:14.315Z,12.20
2022-10-22T22:01:41.562Z,12.20
2022-10-22T22:04:15.275Z,12.20
2022-10-22T22:06:42.628Z,12.30
2022-10-22T22:09:16.407Z,12.30
2022-10-22T22:11:43.733Z,12.40
2022-10-22T22:14:18.341Z,12.40
2022-10-22T22:16:45.957Z,12.40
2022-10-22T22:19:19.553Z,12.40
2022-10-22T22:21:53.398Z,12.30
2022-10-22T22:24:27.372Z,12.20
2022-10-22T22:27:01.394Z,12.20
2022-10-22T22:29:48.402Z,12.10
2022-10-22T22:32:22.489Z,12.10
2022-10-22T22:34:56.537Z,12.00
2022-10-22T22:37:31.388Z,12.00
2022-10-22T22:40:05.823Z,12.00
2022-10-22T22:42:39.374Z,12.10
2022-10-22T22:45:13.536Z,12.10
2022-10-22T22:47:47.448Z,12.10
2022-10-22T22:50:21.418Z,12.00
2022-10-22T22:52:48.778Z,12.00
2022-10-22T22:55:24.399Z,11.90
2022-10-22T22:57:51.447Z,11.90
2022-10-22T23:00:25.375Z,11.90
2022-10-22T23:02:56.527Z,11.80
2022-10-22T23:05:30.371Z,11.80
2022-10-22T23:07:57.715Z,11.80
2022-10-22T23:10:31.506Z,11.80
2022-10-22T23:12:58.661Z,11.90
2022-10-22T23:15:32.304Z,11.80
2022-10-22T23:18:06.433Z,11.80
2022-10-22T23:20:40.416Z,11.80
2022-10-22T23:23:08.002Z,11.80
2022-10-22T23:25:41.380Z,11.80
2022-10-22T23:28:08.424Z,11.70
2022-10-22T23:30:52.707Z,11.70
2022-10-22T23:33:26.529Z,11.70
2022-10-22T23:36:01.039Z,11.80
2022-10-22T23:38:37.208Z,11.80
2022-10-22T23:41:05.857Z,11.80
2022-10-22T23:43:44.517Z,11.90
2022-10-22T23:46:21.439Z,11.90
2022-10-22T23:48:49.300Z,12.00
2022-10-22T23:51:24.515Z,12.10
2022-10-22T23:54:11.289Z,12.10
2022-10-22T23:56:45.329Z,12.20
